Miami International Airport

KMIA · 佛罗里达州, 美国

罗盘
风向 的 Miami International Airport 9/27
风: 4 kt, 2 beaufort


4 kt
改变
0 ft 6.000 12.000 18.000 24.000 30.000
Cloud Cloud
FEW 3.500
Cloud Cloud
FEW 30.000
METAR KMIA 121953Z VRB04KT 10SM FEW035 FEW300 28/12 A3009 RMK AO2 SLP188 T02830117

METAR Miami International Airport - KMIA/MIA

Miami International Airport是,美国中的大型机场。 该机场位于纬度25,79617和经度-80,28974。 该机场有4条跑道: 9/27, 8R/26L, 8L/26R 和 12/30. 本场的ICAO机场代码为KMIA。 该机场的本地机场标识(FAA LID)为MIA。 该机场的IATA代码为MIA。 机场在Miami FIR中。

该航空气象观测是针对Miami International Airport在2024年4月12日 15:53, 当地时间进行的。

机场观察

可变方向的风很小或没有风。

可见度为10 mi。

有几云在3.500 ft的高度 和 几云在30.000 ft的高度。 没有观察到天花板。

温度和风寒是28 °C。 露点为12 °C,相对湿度为37%。 海平面上的气压为30,09 inHg (QNH)。

白天

今天,太阳从07:00升起,在19:43降落。 这适用于Miami International Airport,世界夏令时可能有所不同。 当地时间与世界标准时间之间的时差为-4 小时。 夏令时目前正在进行中。

公司介绍

我们没有关于这个机场的公司信息。

体会

到Vliegles.nl去找飞行课程,跳伞和其他飞行体验。 浏览页面,了解Miami International Airport附近所有可用的活动。 你也可以使用搜索功能来寻找你所在地附近的特定飞行课程、跳伞或其他飞行体验。

跑道

Id 标题 侧风 逆风 侧风 %
9/27 087°-267° 4 kt 100 %
8R/26L 087°-267° 4 kt 100 %
8L/26R 087°-267° 4 kt 100 %
12/30 119°-299° 3 kt 2 kt 87 %

逆风成分最大的方向会被突出显示,并用于横风计算。 这并不一定意味着这个方向在使用。

乌云

3.500 ft FEW 几云
30.000 ft FEW 几云

温度 & 天气

温度 28,3 °C
露点 11,7 °C
相对湿度 37%
Kp-index 1 (0-9)

评论

AO2自动气象站,可确定降水类型
SLP188海平面压力为30,09 inHg (30,09 inHg)
T02830117温度为28,3 °C (82,9 °F),露点为11,7 °C (53,1 °F)

白天

日出
07:00
中午
13:21
日落
19:43 (3:31)

小工具

你想在你的网站上有一个关于Miami International Airport的当前航空天气(METAR)的小部件吗?

显示HTML代码
报告变更